Time;durP1;ratioP1;P1;durP2;ratioP2;P2;SDS_P1;SDS_P2;PMS_P1;PMS_P2;Temp;Humidity;BMP_temperature;BMP_pressure;BME280_temperature;BME280_humidity;BME280_pressure;Samples;Min_cycle;Max_cycle;Signal;HPM_P1;HPM_P2
2023/01/11 00:01:03;;;;;;;2.35;0.80;;;11.60;88.80;;;;;;5071019;28;20075;-78
2023/01/11 00:03:29;;;;;;;2.05;0.80;;;11.60;88.80;;;;;;5070295;28;20033;-78
2023/01/11 00:05:56;;;;;;;2.17;0.90;;;11.60;89.00;;;;;;5071824;28;20028;-78
2023/01/11 00:08:23;;;;;;;1.63;0.82;;;11.60;88.80;;;;;;5070415;28;20036;-78
2023/01/11 00:10:49;;;;;;;1.35;0.73;;;11.60;88.80;;;;;;5070551;28;20025;-77
2023/01/11 00:13:14;;;;;;;1.88;0.88;;;11.60;89.00;;;;;;5071356;28;20496;-76
2023/01/11 00:15:40;;;;;;;2.42;1.00;;;11.60;89.00;;;;;;5070096;28;20032;-79
2023/01/11 00:18:06;;;;;;;2.40;0.80;;;11.60;89.00;;;;;;5071495;28;20028;-77
2023/01/11 00:20:31;;;;;;;1.42;0.75;;;11.60;89.00;;;;;;5070361;28;20119;-78
2023/01/11 00:22:57;;;;;;;1.95;0.80;;;11.60;89.00;;;;;;5071122;28;20112;-78
2023/01/11 00:25:23;;;;;;;2.25;0.90;;;11.60;88.90;;;;;;5070139;28;20040;-76
2023/01/11 00:27:48;;;;;;;2.17;0.80;;;11.60;88.80;;;;;;5070214;28;20067;-78
2023/01/11 00:30:15;;;;;;;3.20;1.00;;;11.60;88.90;;;;;;5071444;28;20044;-77
2023/01/11 00:32:41;;;;;;;1.55;0.80;;;11.60;89.00;;;;;;5070091;28;20063;-78
2023/01/11 00:35:07;;;;;;;2.97;1.00;;;11.50;89.00;;;;;;5071190;28;20056;-78
2023/01/11 00:37:33;;;;;;;1.40;0.70;;;11.60;89.00;;;;;;5069799;28;20115;-78
2023/01/11 00:39:58;;;;;;;1.42;0.73;;;11.60;89.00;;;;;;5069186;28;20533;-80
2023/01/11 00:48:07;;;;;;;1.38;0.88;;;11.60;89.00;;;;;;5069574;28;20099;-77
2023/01/11 00:50:35;;;;;;;1.70;0.80;;;11.70;89.10;;;;;;5069814;28;20115;-77
2023/01/11 00:53:01;;;;;;;1.00;0.60;;;11.60;89.10;;;;;;5069604;28;20032;-79
2023/01/11 00:55:27;;;;;;;1.23;0.80;;;11.60;89.10;;;;;;5069274;28;20075;-78
2023/01/11 00:57:53;;;;;;;1.30;0.70;;;11.60;89.10;;;;;;5069549;28;20762;-79
2023/01/11 01:00:20;;;;;;;1.50;0.70;;;11.60;89.20;;;;;;5069349;28;20036;-79
2023/01/11 01:02:47;;;;;;;2.25;0.90;;;11.60;89.20;;;;;;5070964;28;20031;-77
2023/01/11 01:05:12;;;;;;;1.60;0.60;;;11.60;89.20;;;;;;5069668;28;20028;-76
2023/01/11 01:07:38;;;;;;;0.85;0.60;;;11.60;89.20;;;;;;5069448;28;20021;-77
2023/01/11 01:10:04;;;;;;;1.42;0.70;;;11.60;89.30;;;;;;5069167;28;20020;-82
2023/01/11 01:15:14;;;;;;;2.17;0.70;;;11.60;89.30;;;;;;5070502;28;20074;-78
2023/01/11 01:17:39;;;;;;;1.98;0.68;;;11.60;89.30;;;;;;5069188;28;20028;-77
2023/01/11 01:20:05;;;;;;;1.15;0.60;;;11.60;89.20;;;;;;5069250;28;20029;-77
2023/01/11 01:22:31;;;;;;;1.85;0.85;;;11.60;89.30;;;;;;5067006;28;20029;-78
2023/01/11 01:24:56;;;;;;;3.20;0.90;;;11.60;89.20;;;;;;5068963;28;20035;-79
2023/01/11 01:27:22;;;;;;;1.27;0.75;;;11.60;89.10;;;;;;5068449;28;20406;-79
2023/01/11 01:29:47;;;;;;;1.65;0.82;;;11.60;89.20;;;;;;5069130;28;20020;-78
2023/01/11 01:32:13;;;;;;;0.85;0.63;;;11.60;89.10;;;;;;5068768;28;20051;-77
2023/01/11 01:34:38;;;;;;;1.25;0.60;;;11.60;89.10;;;;;;5069035;28;20111;-76
2023/01/11 01:37:09;;;;;;;2.08;0.70;;;11.60;89.10;;;;;;5068780;28;20025;-77
2023/01/11 01:39:34;;;;;;;1.17;0.63;;;11.60;89.10;;;;;;5068670;28;20545;-78
2023/01/11 01:42:00;;;;;;;1.25;0.70;;;11.60;89.20;;;;;;5068665;28;20024;-78
2023/01/11 01:44:51;;;;;;;1.50;0.55;;;11.60;89.00;;;;;;5068437;28;20082;-77
2023/01/11 01:47:21;;;;;;;1.10;0.55;;;11.60;89.20;;;;;;5069649;28;20497;-79
2023/01/11 01:49:47;;;;;;;1.33;0.60;;;11.60;89.20;;;;;;5069930;28;20037;-79
2023/01/11 01:52:12;;;;;;;1.90;0.73;;;11.60;89.20;;;;;;5068458;28;20028;-78
2023/01/11 01:54:43;;;;;;;1.02;0.57;;;11.60;89.20;;;;;;5069366;28;20029;-78
2023/01/11 01:57:17;;;;;;;1.95;0.60;;;11.60;89.30;;;;;;5069687;28;20449;-80
2023/01/11 01:59:43;;;;;;;1.05;0.65;;;11.60;89.40;;;;;;5067905;28;20112;-76
2023/01/11 02:02:10;;;;;;;0.63;0.55;;;11.60;89.30;;;;;;5069573;28;20533;-77
2023/01/11 02:04:40;;;;;;;1.52;0.70;;;11.60;89.40;;;;;;5068065;28;20039;-76
2023/01/11 02:07:18;;;;;;;2.28;0.95;;;11.70;89.30;;;;;;5068050;28;20870;-76
2023/01/11 02:10:06;;;;;;;1.17;0.52;;;11.60;89.30;;;;;;5068239;28;20025;-81
2023/01/11 02:12:39;;;;;;;1.02;0.60;;;11.60;89.20;;;;;;5069447;28;20428;-77
2023/01/11 02:15:06;;;;;;;0.85;0.50;;;11.60;89.30;;;;;;5067945;28;20089;-76
2023/01/11 02:17:31;;;;;;;1.40;0.60;;;11.60;89.30;;;;;;5069548;28;20507;-77
2023/01/11 02:20:19;;;;;;;1.77;0.60;;;11.60;89.30;;;;;;5067853;28;20056;-81
2023/01/11 02:23:06;;;;;;;1.75;0.50;;;11.60;89.20;;;;;;5067929;28;20031;-79
2023/01/11 02:26:09;;;;;;;0.65;0.50;;;11.60;89.20;;;;;;5068035;28;20028;-78
2023/01/11 02:29:13;;;;;;;1.08;0.63;;;11.60;89.40;;;;;;5036840;28;20041;-77
2023/01/11 02:31:59;;;;;;;1.38;0.65;;;11.60;89.30;;;;;;5068073;28;20024;-77
2023/01/11 02:34:29;;;;;;;1.67;0.57;;;11.60;89.30;;;;;;5068610;28;20540;-77
2023/01/11 02:37:17;;;;;;;1.02;0.60;;;11.60;89.20;;;;;;5068962;28;20025;-77
2023/01/11 02:40:02;;;;;;;1.30;0.60;;;11.60;89.30;;;;;;5068909;28;20020;-79
2023/01/11 02:45:49;;;;;;;1.27;0.50;;;11.60;89.40;;;;;;5069045;28;20146;-77
2023/01/11 02:48:20;;;;;;;0.60;0.43;;;11.60;89.30;;;;;;5067290;28;20059;-78
2023/01/11 02:51:00;;;;;;;1.23;0.70;;;11.60;89.30;;;;;;5067579;28;20028;-77
2023/01/11 02:53:38;;;;;;;0.47;0.40;;;11.60;89.30;;;;;;5067207;28;20123;-76
2023/01/11 02:56:11;;;;;;;0.90;0.50;;;11.60;89.40;;;;;;5067148;28;20047;-80
2023/01/11 02:58:40;;;;;;;2.17;0.47;;;11.60;89.50;;;;;;5068728;28;20020;-78
2023/01/11 03:01:06;;;;;;;0.30;0.30;;;11.60;89.40;;;;;;5067094;28;20025;-76
2023/01/11 03:03:32;;;;;;;0.98;0.40;;;11.60;89.40;;;;;;5067126;28;20020;-77
2023/01/11 03:06:10;;;;;;;1.15;0.52;;;11.60;89.30;;;;;;5067136;28;20044;-77
2023/01/11 03:08:56;;;;;;;0.63;0.35;;;11.60;89.40;;;;;;5067290;28;20028;-76
2023/01/11 03:14:55;;;;;;;1.30;0.38;;;11.60;89.40;;;;;;5068906;28;20100;-79
2023/01/11 03:17:47;;;;;;;1.35;0.60;;;11.60;89.40;;;;;;5072697;28;20034;-78
2023/01/11 03:20:18;;;;;;;1.17;0.50;;;11.60;89.50;;;;;;5072251;28;20035;-78
2023/01/11 03:23:21;;;;;;;0.50;0.40;;;11.60;89.80;;;;;;5072396;28;20130;-77
2023/01/11 03:26:12;;;;;;;0.80;0.60;;;11.60;89.50;;;;;;5072392;28;20025;-78
2023/01/11 03:28:47;;;;;;;;;;;11.60;89.50;;;;;;5073166;28;20028;-78
2023/01/11 03:31:28;;;;;;;0.90;0.40;;;11.60;89.50;;;;;;5066341;28;19912;-79
2023/01/11 03:34:11;;;;;;;0.40;0.40;;;11.60;89.40;;;;;;5068607;28;20396;-77
2023/01/11 03:37:02;;;;;;;0.95;0.45;;;11.60;89.50;;;;;;5071286;28;20031;-77
2023/01/11 03:39:34;;;;;;;0.55;0.55;;;11.60;89.60;;;;;;5072505;28;20017;-78
2023/01/11 03:42:04;;;;;;;0.88;0.45;;;11.60;89.60;;;;;;5072188;28;20020;-78
2023/01/11 03:44:36;;;;;;;1.67;0.70;;;11.60;89.60;;;;;;5072093;28;20043;-78
2023/01/11 03:47:06;;;;;;;0.93;0.52;;;11.60;89.60;;;;;;5072826;28;20115;-78
2023/01/11 03:49:50;;;;;;;0.55;0.40;;;11.60;89.70;;;;;;5072605;28;20024;-78
2023/01/11 03:52:19;;;;;;;1.00;0.50;;;11.60;89.60;;;;;;5072861;28;20437;-77
2023/01/11 03:54:44;;;;;;;0.95;0.50;;;11.60;89.60;;;;;;5072655;28;20031;-78
2023/01/11 03:57:20;;;;;;;0.68;0.40;;;11.60;89.60;;;;;;5071006;28;20054;-78
2023/01/11 03:59:47;;;;;;;1.05;0.40;;;11.50;89.70;;;;;;5072446;28;20040;-79
2023/01/11 04:02:15;;;;;;;0.73;0.43;;;11.60;89.70;;;;;;5070974;28;20034;-79
2023/01/11 04:04:40;;;;;;;0.77;0.30;;;11.60;89.60;;;;;;5071873;28;20493;-78
2023/01/11 04:07:06;;;;;;;0.77;0.38;;;11.60;89.60;;;;;;5072120;28;20063;-78
2023/01/11 04:09:31;;;;;;;0.30;0.30;;;11.60;89.60;;;;;;5072057;28;20032;-79
2023/01/11 04:11:57;;;;;;;0.30;0.30;;;11.60;89.60;;;;;;5072035;28;20024;-79
2023/01/11 04:14:22;;;;;;;1.45;0.50;;;11.60;89.70;;;;;;5070553;28;20393;-77
2023/01/11 04:16:48;;;;;;;1.73;0.40;;;11.60;89.70;;;;;;5071406;28;20025;-78
2023/01/11 04:19:13;;;;;;;0.63;0.40;;;11.60;89.70;;;;;;5071246;28;20027;-79
2023/01/11 04:21:39;;;;;;;0.68;0.30;;;11.60;89.70;;;;;;5072161;28;20040;-77
2023/01/11 04:24:04;;;;;;;0.73;0.47;;;11.60;89.70;;;;;;5075833;28;20086;-78
2023/01/11 04:26:30;;;;;;;0.20;0.20;;;11.60;89.70;;;;;;5076183;28;20064;-79
2023/01/11 04:28:55;;;;;;;0.47;0.30;;;11.60;89.70;;;;;;5074354;28;20123;-78
2023/01/11 04:31:21;;;;;;;0.40;0.30;;;11.60;89.80;;;;;;5075622;28;20047;-78
2023/01/11 04:33:46;;;;;;;0.30;0.30;;;11.60;89.80;;;;;;5077930;28;20099;-78
2023/01/11 04:36:12;;;;;;;1.02;0.40;;;11.60;89.80;;;;;;5076999;28;20469;-78
2023/01/11 04:38:37;;;;;;;1.50;0.40;;;11.60;89.80;;;;;;5073383;28;20031;-77
2023/01/11 04:43:47;;;;;;;0.25;0.22;;;11.60;89.90;;;;;;5070395;28;20917;-77
2023/01/11 04:46:13;;;;;;;0.25;0.20;;;11.60;89.90;;;;;;5070299;28;20056;-77
2023/01/11 04:48:39;;;;;;;0.63;0.28;;;11.60;89.90;;;;;;5068824;28;20045;-77
2023/01/11 04:51:06;;;;;;;0.10;0.10;;;11.60;89.90;;;;;;5068633;28;20025;-77
2023/01/11 04:53:32;;;;;;;0.45;0.30;;;11.60;89.90;;;;;;5068769;28;20024;-76
2023/01/11 04:56:02;;;;;;;0.75;0.30;;;11.60;89.90;;;;;;5068417;28;20758;-76
2023/01/11 04:58:29;;;;;;;0.30;0.20;;;11.60;89.90;;;;;;5066781;28;20469;-76
2023/01/11 05:00:55;;;;;;;0.40;0.40;;;11.60;89.90;;;;;;5056789;28;20074;-76
2023/01/11 05:03:21;;;;;;;0.40;0.30;;;11.60;89.90;;;;;;5067796;28;20025;-76
2023/01/11 05:06:00;;;;;;;0.70;0.32;;;11.60;90.00;;;;;;5068056;28;20132;-76
2023/01/11 05:08:27;;;;;;;0.52;0.30;;;11.60;90.00;;;;;;5068429;28;20029;-76
2023/01/11 05:10:54;;;;;;;0.43;0.35;;;11.60;90.00;;;;;;5066955;28;20493;-76
2023/01/11 05:13:20;;;;;;;0.80;0.50;;;11.60;90.00;;;;;;5066754;28;20059;-77
2023/01/11 05:15:45;;;;;;;0.63;0.30;;;11.60;90.00;;;;;;5066753;28;20477;-76
2023/01/11 05:18:11;;;;;;;0.40;0.38;;;11.60;90.00;;;;;;5065844;28;20046;-76
2023/01/11 05:20:36;;;;;;;0.50;0.30;;;11.60;90.00;;;;;;5067420;28;20024;-76
2023/01/11 05:23:02;;;;;;;1.02;0.38;;;11.60;90.00;;;;;;5066059;28;20575;-77
2023/01/11 05:25:27;;;;;;;0.20;0.20;;;11.60;90.00;;;;;;5068423;28;20028;-76
2023/01/11 05:27:53;;;;;;;0.40;0.40;;;11.50;90.00;;;;;;5067826;28;20074;-77
2023/01/11 05:30:18;;;;;;;0.88;0.47;;;11.60;90.00;;;;;;5068470;28;20111;-77
2023/01/11 05:32:44;;;;;;;0.60;0.30;;;11.60;90.00;;;;;;5061855;28;20496;-76
2023/01/11 05:35:10;;;;;;;0.60;0.40;;;11.60;90.00;;;;;;5066349;28;20028;-78
2023/01/11 05:37:36;;;;;;;0.40;0.30;;;11.60;90.00;;;;;;5067482;28;20111;-78
2023/01/11 05:40:03;;;;;;;0.45;0.25;;;11.60;90.00;;;;;;5068937;28;20424;-83
2023/01/11 05:42:28;;;;;;;0.73;0.55;;;11.60;90.00;;;;;;5068221;28;20026;-78
2023/01/11 05:47:38;;;;;;;0.57;0.30;;;11.60;90.00;;;;;;5067538;28;20063;-78
2023/01/11 05:50:04;;;;;;;0.98;0.30;;;11.60;90.00;;;;;;5069777;28;20393;-80
2023/01/11 05:52:29;;;;;;;0.88;0.30;;;11.60;90.00;;;;;;5068115;28;20024;-78
2023/01/11 05:54:55;;;;;;;0.40;0.30;;;11.60;90.00;;;;;;5067288;28;20029;-79
2023/01/11 05:57:20;;;;;;;0.30;0.30;;;11.60;90.10;;;;;;5067256;28;20031;-78
2023/01/11 05:59:45;;;;;;;0.45;0.30;;;11.60;90.00;;;;;;5067378;28;20667;-77
2023/01/11 06:02:11;;;;;;;0.65;0.30;;;11.60;90.00;;;;;;5068095;28;20037;-77
2023/01/11 06:04:36;;;;;;;0.55;0.30;;;11.60;90.00;;;;;;5068383;28;20024;-76
2023/01/11 06:07:02;;;;;;;0.30;0.30;;;11.60;90.00;;;;;;5068429;28;20032;-79
2023/01/11 06:09:27;;;;;;;0.20;0.20;;;11.60;90.10;;;;;;5068591;28;20028;-76
2023/01/11 06:11:53;;;;;;;0.40;0.25;;;11.60;90.00;;;;;;5068394;28;20439;-78
2023/01/11 06:14:18;;;;;;;0.40;0.28;;;11.60;90.10;;;;;;5067673;28;20029;-76
2023/01/11 06:16:44;;;;;;;0.30;0.30;;;11.60;90.10;;;;;;5068351;28;20021;-77
2023/01/11 06:19:10;;;;;;;0.20;0.20;;;11.60;90.10;;;;;;5067028;28;20032;-77
2023/01/11 06:21:35;;;;;;;0.60;0.30;;;11.60;90.10;;;;;;5066889;28;20047;-77
2023/01/11 06:24:01;;;;;;;0.55;0.40;;;11.60;90.10;;;;;;5067756;28;20405;-76
2023/01/11 06:26:26;;;;;;;0.55;0.32;;;11.60;90.10;;;;;;5068196;28;20099;-76
2023/01/11 06:28:52;;;;;;;0.52;0.25;;;11.60;90.10;;;;;;5067637;28;20029;-76
2023/01/11 06:31:18;;;;;;;1.52;0.40;;;11.60;90.10;;;;;;5067853;28;20031;-77
2023/01/11 06:33:44;;;;;;;0.63;0.40;;;11.60;90.10;;;;;;5066476;28;20020;-78
2023/01/11 06:36:12;;;;;;;0.20;0.20;;;11.60;90.10;;;;;;5067852;28;20090;-77
2023/01/11 06:38:37;;;;;;;0.20;0.20;;;11.60;90.10;;;;;;5066166;28;20031;-76
2023/01/11 06:41:04;;;;;;;0.52;0.30;;;11.60;90.10;;;;;;5067649;28;20021;-76
2023/01/11 06:43:31;;;;;;;0.65;0.20;;;11.60;90.10;;;;;;5066474;28;20116;-76
2023/01/11 06:45:57;;;;;;;0.38;0.20;;;11.50;90.10;;;;;;5067302;28;20032;-77
2023/01/11 06:48:23;;;;;;;0.20;0.20;;;11.60;90.10;;;;;;5066198;28;20492;-77
2023/01/11 06:50:51;;;;;;;0.40;0.22;;;11.60;90.10;;;;;;5066124;28;20043;-78
2023/01/11 06:53:16;;;;;;;0.22;0.15;;;11.60;90.20;;;;;;5067068;28;20028;-77
2023/01/11 06:55:42;;;;;;;0.93;0.32;;;11.60;90.20;;;;;;5067295;28;20040;-77
2023/01/11 06:58:08;;;;;;;0.22;0.20;;;11.60;90.10;;;;;;5067410;28;20400;-76
2023/01/11 07:00:33;;;;;;;0.50;0.30;;;11.60;90.10;;;;;;5065683;28;20025;-77
2023/01/11 07:03:03;;;;;;;0.52;0.30;;;11.60;90.20;;;;;;5065755;28;20120;-76
2023/01/11 07:05:31;;;;;;;0.73;0.30;;;11.50;90.10;;;;;;5067399;28;20036;-76
2023/01/11 07:07:56;;;;;;;0.35;0.20;;;11.60;90.10;;;;;;5067359;28;20029;-75
2023/01/11 07:10:22;;;;;;;0.10;0.10;;;11.60;90.20;;;;;;5067213;28;20040;-76
2023/01/11 07:12:47;;;;;;;0.60;0.25;;;11.60;90.20;;;;;;5065942;28;20075;-76
2023/01/11 07:15:13;;;;;;;0.20;0.20;;;11.60;90.20;;;;;;5065940;28;20036;-76
2023/01/11 07:17:38;;;;;;;0.50;0.20;;;11.60;90.20;;;;;;5048607;28;20021;-77
2023/01/11 07:20:05;;;;;;;0.20;0.20;;;11.60;90.20;;;;;;5045733;28;20124;-76
2023/01/11 07:22:34;;;;;;;0.30;0.25;;;11.60;90.20;;;;;;5047093;28;20051;-77
2023/01/11 07:24:59;;;;;;;0.55;0.30;;;11.60;90.20;;;;;;5047028;28;20025;-77
2023/01/11 07:27:25;;;;;;;1.35;0.40;;;11.60;90.20;;;;;;5045351;28;20026;-77
2023/01/11 07:29:52;;;;;;;0.85;0.10;;;11.60;90.20;;;;;;5046597;28;20029;-76
2023/01/11 07:32:18;;;;;;;0.50;0.28;;;11.60;90.20;;;;;;5046559;28;20068;-76
2023/01/11 07:34:43;;;;;;;1.80;0.30;;;11.60;90.20;;;;;;5046783;28;20056;-76
2023/01/11 07:37:09;;;;;;;0.22;0.20;;;11.60;90.20;;;;;;5045375;28;20482;-76
2023/01/11 07:39:35;;;;;;;0.30;0.30;;;11.60;90.20;;;;;;5046739;28;20024;-77
2023/01/11 07:44:45;;;;;;;0.47;0.30;;;11.60;90.20;;;;;;5047185;28;20657;-76
2023/01/11 07:47:11;;;;;;;0.80;0.40;;;11.60;90.20;;;;;;5045420;28;20029;-76
2023/01/11 07:49:36;;;;;;;0.30;0.28;;;11.60;90.20;;;;;;5047382;28;20025;-75
2023/01/11 07:52:02;;;;;;;0.45;0.20;;;11.60;90.20;;;;;;5045410;28;20060;-76
2023/01/11 07:54:27;;;;;;;0.20;0.20;;;11.60;90.20;;;;;;5046355;28;20031;-76
2023/01/11 07:56:55;;;;;;;0.30;0.30;;;11.60;90.20;;;;;;5045214;28;20516;-76
2023/01/11 07:59:21;;;;;;;0.60;0.30;;;11.60;90.20;;;;;;5050323;28;20022;-77
2023/01/11 08:01:46;;;;;;;0.17;0.17;;;11.60;90.20;;;;;;5050177;28;20028;-75
2023/01/11 08:04:13;;;;;;;0.98;0.20;;;11.60;90.20;;;;;;5048829;28;20043;-76
2023/01/11 08:06:39;;;;;;;0.43;0.22;;;11.60;90.20;;;;;;5049392;28;20021;-76
2023/01/11 08:09:05;;;;;;;0.35;0.35;;;11.60;90.20;;;;;;5049027;28;20021;-75
2023/01/11 08:16:59;;;;;;;0.50;0.30;;;11.60;90.20;;;;;;5050749;28;20098;-76
2023/01/11 08:19:25;;;;;;;0.20;0.20;;;11.60;90.20;;;;;;5049944;28;20474;-75
2023/01/11 08:21:50;;;;;;;0.75;0.28;;;11.60;90.20;;;;;;5050441;28;20017;-78
2023/01/11 08:24:16;;;;;;;0.30;0.30;;;11.60;90.20;;;;;;5048917;28;20371;-77
2023/01/11 08:26:41;;;;;;;0.20;0.20;;;11.60;90.20;;;;;;5048427;28;20029;-74
2023/01/11 08:29:07;;;;;;;0.63;0.32;;;11.60;90.20;;;;;;5047851;28;20032;-75
2023/01/11 08:31:32;;;;;;;1.05;0.30;;;11.60;90.40;;;;;;5047764;28;20021;-76
2023/01/11 08:33:58;;;;;;;1.00;0.30;;;11.60;90.10;;;;;;5049548;28;20390;-75
2023/01/11 08:36:26;;;;;;;0.75;0.15;;;11.60;90.10;;;;;;5048906;28;20094;-75
2023/01/11 08:38:57;;;;;;;0.45;0.28;;;11.60;90.10;;;;;;5049005;28;20025;-76
2023/01/11 08:41:24;;;;;;;0.95;0.30;;;11.60;90.10;;;;;;5048645;28;20095;-74
2023/01/11 08:43:49;;;;;;;0.30;0.20;;;11.60;90.10;;;;;;5048291;28;20032;-75
2023/01/11 08:46:16;;;;;;;0.93;0.30;;;11.60;90.10;;;;;;5048448;28;20055;-76
2023/01/11 08:48:42;;;;;;;1.05;0.35;;;11.60;90.20;;;;;;5047374;28;20029;-74
2023/01/11 08:51:07;;;;;;;0.28;0.20;;;11.60;90.20;;;;;;5047729;28;20412;-75
2023/01/11 08:53:33;;;;;;;0.40;0.20;;;11.60;90.20;;;;;;5046798;28;20765;-74
2023/01/11 08:55:58;;;;;;;0.30;0.22;;;11.60;90.20;;;;;;5046907;28;20033;-75
2023/01/11 08:58:24;;;;;;;1.08;0.40;;;11.60;90.40;;;;;;5048286;28;20545;-75
2023/01/11 09:00:50;;;;;;;0.30;0.28;;;11.50;90.10;;;;;;5047821;28;20033;-76
2023/01/11 09:03:17;;;;;;;0.82;0.40;;;11.60;90.20;;;;;;5048035;28;20501;-75
2023/01/11 09:05:43;;;;;;;0.40;0.30;;;11.60;90.20;;;;;;5046981;28;20917;-75
2023/01/11 09:08:08;;;;;;;0.38;0.30;;;11.60;90.10;;;;;;5046941;28;20040;-75
2023/01/11 09:10:34;;;;;;;0.38;0.30;;;11.60;90.20;;;;;;5047062;28;20029;-75
2023/01/11 09:13:00;;;;;;;0.80;0.40;;;11.60;90.20;;;;;;5046498;28;20029;-74
2023/01/11 09:15:26;;;;;;;0.82;0.40;;;11.60;90.20;;;;;;5046549;28;20131;-73
2023/01/11 09:17:52;;;;;;;0.20;0.20;;;11.60;90.20;;;;;;5048030;28;20094;-75
2023/01/11 09:20:19;;;;;;;0.30;0.30;;;11.60;90.20;;;;;;5048207;28;20027;-75
2023/01/11 09:22:46;;;;;;;0.30;0.30;;;11.60;90.20;;;;;;5046505;28;20056;-74
2023/01/11 09:25:11;;;;;;;0.43;0.30;;;11.60;90.20;;;;;;5046473;28;20890;-76
2023/01/11 09:27:37;;;;;;;0.30;0.30;;;11.50;90.10;;;;;;5046774;28;20035;-74
2023/01/11 09:30:03;;;;;;;0.90;0.47;;;11.60;90.20;;;;;;5046981;28;20087;-75
2023/01/11 09:32:29;;;;;;;0.93;0.40;;;11.60;90.20;;;;;;5047830;28;20033;-76
2023/01/11 09:34:56;;;;;;;0.60;0.40;;;11.60;90.20;;;;;;5047892;28;20033;-77
2023/01/11 09:37:23;;;;;;;0.73;0.50;;;11.60;90.20;;;;;;5046741;28;20071;-75
2023/01/11 09:39:50;;;;;;;0.55;0.40;;;11.60;90.20;;;;;;5046481;28;20025;-76
2023/01/11 09:42:35;;;;;;;1.00;0.40;;;11.60;90.20;;;;;;5047110;28;20021;-74
2023/01/11 09:45:08;;;;;;;0.90;0.50;;;11.60;90.20;;;;;;5047407;28;20031;-75
2023/01/11 09:47:59;;;;;;;0.40;0.40;;;11.60;90.20;;;;;;5047881;28;20056;-74
2023/01/11 09:50:32;;;;;;;0.95;0.50;;;11.60;90.20;;;;;;5046466;28;20035;-75
2023/01/11 09:53:03;;;;;;;0.47;0.43;;;11.60;90.20;;;;;;5046169;28;20128;-75
2023/01/11 09:55:36;;;;;;;0.50;0.40;;;11.60;90.20;;;;;;5047416;28;20493;-75
2023/01/11 09:58:27;;;;;;;1.38;0.40;;;11.60;90.20;;;;;;5047850;28;20063;-75
2023/01/11 10:01:33;;;;;;;0.80;0.38;;;11.60;90.20;;;;;;5045563;28;20037;-75
2023/01/11 10:04:19;;;;;;;1.85;0.50;;;11.60;90.20;;;;;;5045365;28;20545;-77
2023/01/11 10:07:01;;;;;;;0.32;0.32;;;11.60;90.20;;;;;;5046078;28;20055;-75
2023/01/11 10:09:34;;;;;;;1.50;0.50;;;11.60;90.20;;;;;;5047364;28;20056;-76
2023/01/11 10:12:19;;;;;;;0.40;0.40;;;11.60;90.20;;;;;;5046928;28;20021;-78
2023/01/11 10:14:56;;;;;;;1.05;0.60;;;11.60;90.20;;;;;;5045705;28;20566;-77
2023/01/11 10:17:35;;;;;;;3.47;0.60;;;11.60;90.20;;;;;;5045506;28;20024;-76
2023/01/11 10:20:14;;;;;;;0.52;0.40;;;11.60;90.20;;;;;;5044918;28;20029;-76
2023/01/11 10:22:43;;;;;;;0.60;0.57;;;11.60;90.10;;;;;;5045477;28;20029;-77
2023/01/11 10:25:25;;;;;;;0.65;0.50;;;11.60;90.20;;;;;;5046688;28;20043;-76
2023/01/11 10:28:06;;;;;;;0.52;0.47;;;11.60;90.20;;;;;;5046828;28;20025;-77
2023/01/11 10:37:11;;;;;;;0.90;0.60;;;11.60;90.20;;;;;;5046651;28;20037;-77
2023/01/11 10:40:33;;;;;;;0.70;0.70;;;11.50;90.20;;;;;;5046915;28;20104;-75
2023/01/11 10:43:08;;;;;;;0.70;0.60;;;11.60;90.20;;;;;;5046274;28;20104;-77
2023/01/11 10:45:49;;;;;;;0.80;0.60;;;11.60;90.20;;;;;;5045569;28;20493;-76
2023/01/11 10:48:38;;;;;;;0.50;0.50;;;11.60;90.20;;;;;;5046885;28;20029;-77
2023/01/11 10:51:28;;;;;;;1.80;0.70;;;11.60;90.20;;;;;;5044985;28;20082;-77
2023/01/11 10:54:17;;;;;;;0.60;0.60;;;11.60;90.20;;;;;;5046448;28;20279;-78
2023/01/11 10:56:54;;;;;;;1.48;0.73;;;11.60;90.20;;;;;;5047445;28;20088;-78
2023/01/11 10:59:41;;;;;;;1.02;0.63;;;11.60;90.20;;;;;;5046460;28;20083;-78
2023/01/11 11:02:44;;;;;;;1.33;0.80;;;11.60;90.20;;;;;;5042331;28;20401;-77
2023/01/11 11:05:32;;;;;;;0.65;0.60;;;11.60;90.20;;;;;;5044877;28;20029;-77
2023/01/11 11:08:10;;;;;;;4.07;0.95;;;11.60;90.20;;;;;;5044994;28;20485;-77
2023/01/11 11:10:59;;;;;;;0.98;0.68;;;11.60;90.20;;;;;;5043630;28;20033;-77
2023/01/11 11:13:40;;;;;;;0.98;0.63;;;11.60;90.10;;;;;;5044444;28;20021;-77
2023/01/11 11:16:21;;;;;;;0.90;0.70;;;11.60;90.10;;;;;;5043696;28;20480;-77
2023/01/11 11:18:51;;;;;;;1.15;0.70;;;11.60;90.10;;;;;;5045241;28;20021;-78
2023/01/11 11:21:32;;;;;;;0.75;0.70;;;11.60;90.10;;;;;;5045044;28;20061;-77
2023/01/11 11:24:04;;;;;;;1.05;0.80;;;11.60;90.10;;;;;;5043682;28;20025;-77
2023/01/11 11:26:43;;;;;;;0.85;0.80;;;11.60;90.10;;;;;;5045287;28;20029;-76
2023/01/11 11:29:18;;;;;;;1.23;0.80;;;11.60;90.10;;;;;;5043884;28;20385;-78
2023/01/11 11:31:45;;;;;;;1.30;0.65;;;11.60;90.10;;;;;;5044857;28;20119;-77
2023/01/11 11:34:16;;;;;;;1.20;0.80;;;11.60;90.10;;;;;;5044663;28;20090;-76
2023/01/11 11:36:48;;;;;;;1.33;0.90;;;11.60;90.10;;;;;;5044014;28;20025;-76
2023/01/11 11:39:24;;;;;;;1.30;0.70;;;11.60;90.10;;;;;;5045189;28;20032;-77
2023/01/11 11:41:56;;;;;;;1.98;0.80;;;11.60;90.10;;;;;;5044991;28;20047;-78
2023/01/11 11:44:27;;;;;;;1.83;0.80;;;11.60;90.10;;;;;;5044860;28;20025;-77
2023/01/11 11:46:56;;;;;;;0.82;0.80;;;11.60;90.20;;;;;;5043544;28;20455;-77
2023/01/11 11:49:22;;;;;;;1.65;0.90;;;11.60;90.10;;;;;;5043715;28;20121;-79
2023/01/11 11:51:49;;;;;;;6.85;1.10;;;11.60;90.10;;;;;;5045820;28;20135;-78
2023/01/11 11:54:28;;;;;;;1.05;0.80;;;11.60;90.10;;;;;;5045092;28;20753;-77
2023/01/11 11:56:56;;;;;;;2.53;1.00;;;11.60;90.10;;;;;;5043899;28;20489;-79
2023/01/11 11:59:27;;;;;;;3.60;1.13;;;11.60;90.10;;;;;;5046720;28;20017;-78
2023/01/11 12:02:02;;;;;;;5.15;1.40;;;11.60;90.10;;;;;;5044775;28;20393;-77
2023/01/11 12:04:33;;;;;;;4.15;0.98;;;11.60;90.10;;;;;;5043767;28;20029;-76
2023/01/11 12:07:33;;;;;;;1.55;0.80;;;11.60;90.10;;;;;;5046448;28;20032;-78
2023/01/11 12:10:04;;;;;;;3.15;1.13;;;11.60;90.10;;;;;;5032318;28;20037;-77
2023/01/11 12:12:32;;;;;;;3.42;1.13;;;11.60;90.10;;;;;;5051451;28;20064;-80
2023/01/11 12:15:18;;;;;;;3.00;0.98;;;11.70;90.00;;;;;;5051709;28;20056;-76
2023/01/11 12:17:44;;;;;;;3.22;0.98;;;11.70;90.00;;;;;;5053055;28;20024;-79
2023/01/11 12:20:21;;;;;;;4.15;1.27;;;11.70;89.80;;;;;;5052009;28;20400;-77
2023/01/11 12:22:48;;;;;;;5.03;1.13;;;11.80;89.60;;;;;;5051769;28;20524;-78
2023/01/11 12:25:13;;;;;;;3.58;1.00;;;11.80;89.40;;;;;;5052307;28;20025;-79
2023/01/11 12:27:57;;;;;;;2.92;1.20;;;11.90;89.20;;;;;;5053326;28;20033;-79
2023/01/11 12:30:30;;;;;;;4.35;1.10;;;11.90;89.10;;;;;;5052224;28;20021;-80
2023/01/11 12:33:07;;;;;;;1.48;0.70;;;11.90;88.90;;;;;;5053069;28;20096;-79
2023/01/11 12:35:35;;;;;;;3.75;1.20;;;11.90;89.00;;;;;;5050926;28;20029;-79
2023/01/11 12:38:29;;;;;;;2.50;0.73;;;11.90;89.00;;;;;;5053141;28;20611;-79
2023/01/11 12:41:42;;;;;;;4.60;1.00;;;11.90;89.00;;;;;;5051859;28;20567;-79
2023/01/11 12:44:20;;;;;;;2.00;0.98;;;11.90;89.10;;;;;;5019421;28;20025;-78
2023/01/11 12:47:03;;;;;;;2.38;1.20;;;11.90;89.20;;;;;;5055509;28;20021;-79
2023/01/11 12:49:47;;;;;;;4.18;1.00;;;11.80;89.30;;;;;;5054779;28;20021;-79
2023/01/11 12:52:38;;;;;;;2.38;1.00;;;11.80;89.40;;;;;;5055517;28;20028;-78
2023/01/11 12:55:41;;;;;;;2.80;1.00;;;11.80;89.40;;;;;;5056072;28;20578;-78
2023/01/11 12:58:45;;;;;;;1.90;0.90;;;11.80;89.50;;;;;;5056484;28;20064;-79
2023/01/11 13:01:17;;;;;;;1.77;0.80;;;11.80;89.50;;;;;;5011490;28;20489;-78
2023/01/11 13:03:52;;;;;;;3.17;0.90;;;11.80;89.60;;;;;;5054828;28;20033;-78
2023/01/11 13:06:55;;;;;;;2.53;1.00;;;11.80;90.00;;;;;;5054883;28;20079;-80
2023/01/11 13:09:53;;;;;;;2.70;1.10;;;11.80;89.60;;;;;;5056377;28;20021;-78
2023/01/11 13:12:30;;;;;;;2.50;1.10;;;11.80;89.60;;;;;;5055030;28;20036;-83
2023/01/11 13:15:25;;;;;;;3.65;1.08;;;11.80;89.60;;;;;;5056055;28;20067;-78
2023/01/11 13:18:09;;;;;;;4.20;1.50;;;11.80;89.60;;;;;;5054816;28;20032;-80
2023/01/11 13:20:49;;;;;;;2.92;1.13;;;11.80;89.60;;;;;;5056845;28;20025;-80
2023/01/11 13:23:18;;;;;;;2.08;1.00;;;11.80;89.60;;;;;;5058025;28;20075;-80
2023/01/11 13:25:47;;;;;;;2.20;1.13;;;11.80;89.50;;;;;;5056178;28;20362;-80
2023/01/11 13:28:33;;;;;;;2.17;0.98;;;11.80;89.50;;;;;;5057277;28;20036;-80
2023/01/11 13:31:02;;;;;;;1.60;1.00;;;11.80;89.40;;;;;;5056078;28;20021;-80
2023/01/11 13:33:29;;;;;;;2.50;0.93;;;11.90;89.30;;;;;;5056213;28;20112;-80
2023/01/11 13:36:17;;;;;;;3.70;1.17;;;11.90;89.10;;;;;;5055237;28;20047;-79
2023/01/11 13:38:53;;;;;;;3.25;1.00;;;11.90;88.90;;;;;;5056848;28;20020;-80
2023/01/11 13:41:22;;;;;;;2.67;1.10;;;11.90;89.30;;;;;;5056106;28;20100;-78
2023/01/11 13:44:11;;;;;;;3.15;1.08;;;12.00;88.80;;;;;;5055843;28;20047;-82
2023/01/11 13:47:04;;;;;;;1.80;1.00;;;12.00;88.80;;;;;;5054853;28;20080;-79